Terminal Aerodrome Forecast
Issued by NWS

Home | Current Version | Previous Version | Text Only | Print | Product List | Glossary On
Versions: 1 2 3 4 5 6 7 8 9 10 11 12 13
000
FTUS41 KBTV 251515 AAA
TAFMSS
TAF AMD
KMSS 251515Z 2515/2612 06007KT P6SM -RA OVC040
      TEMPO 2518/2521 6SM -RA BR BKN015
     FM252100 06009KT 5SM -RA BR BKN015 OVC035
     FM260100 03005KT 5SM BR VCSH OVC008
     FM260800 27007KT 5SM -RA BR OVC015=

USA.gov is the U.S. government's official web portal to all federal, state and local government web resources and services.